createdAt,value
2022-09-12T00:00:30.303Z,28.17
2022-09-12T00:03:58.512Z,28.15
2022-09-12T00:07:36.883Z,28.16
2022-09-12T00:11:06.207Z,28.14
2022-09-12T00:14:32.847Z,28.12
2022-09-12T00:18:04.216Z,28.12
2022-09-12T00:21:31.894Z,28.09
2022-09-12T00:24:49.168Z,28.05
2022-09-12T00:28:16.422Z,28.01
2022-09-12T00:31:51.332Z,27.97
2022-09-12T00:35:18.148Z,27.92
2022-09-12T00:38:45.288Z,27.88
2022-09-12T00:42:18.196Z,27.86
2022-09-12T00:45:38.323Z,27.82
2022-09-12T00:48:58.146Z,27.77
2022-09-12T00:52:02.859Z,27.72
2022-09-12T00:55:30.023Z,27.68
2022-09-12T00:58:58.142Z,27.63
2022-09-12T01:02:28.688Z,27.59
2022-09-12T01:05:57.947Z,27.53
2022-09-12T01:09:16.934Z,27.42
2022-09-12T01:12:44.920Z,27.36
2022-09-12T01:16:15.990Z,27.33
2022-09-12T01:19:41.663Z,27.28
2022-09-12T01:23:19.880Z,27.24
2022-09-12T01:26:44.381Z,27.15
2022-09-12T01:30:27.499Z,27.10
2022-09-12T01:34:07.339Z,27.02
2022-09-12T01:37:34.431Z,26.95
2022-09-12T01:41:03.490Z,26.90
2022-09-12T01:44:39.907Z,26.84
2022-09-12T01:47:52.927Z,26.79
2022-09-12T01:51:23.035Z,26.73
2022-09-12T01:54:53.467Z,26.68
2022-09-12T01:58:34.108Z,26.62
2022-09-12T02:01:49.193Z,26.57
2022-09-12T02:05:19.019Z,26.50
2022-09-12T02:09:04.362Z,26.42
2022-09-12T02:12:31.813Z,26.33
2022-09-12T02:15:41.228Z,26.25
2022-09-12T02:19:08.216Z,26.17
2022-09-12T02:22:25.026Z,26.08
2022-09-12T02:25:52.697Z,26.00
2022-09-12T02:29:20.141Z,25.92
2022-09-12T02:36:35.331Z,25.76
2022-09-12T02:39:32.964Z,25.69
2022-09-12T02:42:50.740Z,25.63
2022-09-12T02:46:17.858Z,25.56
2022-09-12T02:49:30.422Z,25.48
2022-09-12T02:52:47.355Z,25.42
2022-09-12T02:56:07.664Z,25.36
2022-09-12T02:59:17.484Z,25.28
2022-09-12T03:02:54.768Z,25.21
2022-09-12T03:06:12.937Z,25.14
2022-09-12T03:09:50.381Z,25.10
2022-09-12T03:13:02.034Z,25.04
2022-09-12T03:16:47.793Z,24.98
2022-09-12T03:20:19.523Z,24.90
2022-09-12T03:24:01.470Z,24.83
2022-09-12T03:27:18.184Z,24.78
2022-09-12T03:30:44.944Z,24.73
2022-09-12T03:34:14.187Z,24.68
2022-09-12T03:37:33.835Z,24.62
2022-09-12T03:40:40.283Z,24.58
2022-09-12T03:43:46.233Z,24.53
2022-09-12T03:47:08.036Z,24.47
2022-09-12T03:50:37.477Z,24.42
2022-09-12T03:54:04.417Z,24.37
2022-09-12T03:57:31.887Z,24.28
2022-09-12T04:00:49.287Z,24.20
2022-09-12T04:04:02.868Z,24.15
2022-09-12T04:07:29.625Z,24.06
2022-09-12T04:10:46.983Z,24.00
2022-09-12T04:14:02.964Z,23.94
2022-09-12T04:17:31.580Z,23.89
2022-09-12T04:20:51.208Z,23.84
2022-09-12T04:24:21.945Z,23.78
2022-09-12T04:27:48.300Z,23.73
2022-09-12T04:31:15.163Z,23.66
2022-09-12T04:34:43.137Z,23.58
2022-09-12T04:38:11.088Z,23.52
2022-09-12T04:40:58.245Z,23.48
2022-09-12T04:44:08.008Z,23.43
2022-09-12T04:47:04.802Z,23.38
2022-09-12T04:50:15.188Z,23.33
2022-09-12T04:53:42.426Z,23.27
2022-09-12T04:57:10.053Z,23.22
2022-09-12T05:00:28.749Z,23.17
2022-09-12T05:03:36.338Z,23.12
2022-09-12T05:06:32.316Z,23.07
2022-09-12T05:09:50.530Z,22.98
2022-09-12T05:13:17.295Z,22.97
2022-09-12T05:16:49.031Z,22.90
2022-09-12T05:19:30.210Z,22.85
2022-09-12T05:22:50.017Z,22.80
2022-09-12T05:26:03.969Z,22.76
2022-09-12T05:29:34.188Z,22.73
2022-09-12T05:33:01.206Z,22.70
2022-09-12T05:36:22.742Z,22.64
2022-09-12T05:39:33.221Z,22.60
2022-09-12T05:42:42.753Z,22.57
2022-09-12T05:46:12.069Z,22.53
2022-09-12T05:49:13.156Z,22.48
2022-09-12T05:52:29.868Z,22.43
2022-09-12T05:55:57.405Z,22.34
2022-09-12T05:59:18.122Z,22.31
2022-09-12T06:02:45.130Z,22.24
2022-09-12T06:06:03.753Z,22.14
2022-09-12T06:09:14.897Z,22.03
2022-09-12T06:12:42.644Z,21.94
2022-09-12T06:16:02.615Z,21.90
2022-09-12T06:19:22.656Z,21.87
2022-09-12T06:22:48.786Z,21.82
2022-09-12T06:26:16.204Z,21.79
2022-09-12T06:29:44.124Z,21.75
2022-09-12T06:33:11.490Z,21.73
2022-09-12T06:36:30.204Z,21.67
2022-09-12T06:40:01.942Z,21.63
2022-09-12T06:43:29.356Z,21.60
2022-09-12T06:46:56.436Z,21.56
2022-09-12T06:50:23.466Z,21.52
2022-09-12T06:53:50.643Z,21.48
2022-09-12T06:57:17.982Z,21.45
2022-09-12T07:00:42.592Z,21.41
2022-09-12T07:04:09.756Z,21.37
2022-09-12T07:07:39.854Z,21.33
2022-09-12T07:10:59.360Z,21.29
2022-09-12T07:13:52.866Z,21.27
2022-09-12T07:17:10.023Z,21.24
2022-09-12T07:20:36.473Z,21.21
2022-09-12T07:23:47.937Z,21.18
2022-09-12T07:26:29.840Z,21.15
2022-09-12T07:29:57.863Z,21.12
2022-09-12T07:33:26.227Z,21.08
2022-09-12T07:36:45.858Z,21.05
2022-09-12T07:40:15.686Z,21.03
2022-09-12T07:43:42.579Z,21.03
2022-09-12T07:47:10.594Z,21.03
2022-09-12T07:50:29.279Z,21.03
2022-09-12T07:54:00.100Z,21.01
2022-09-12T07:57:18.234Z,20.99
2022-09-12T08:00:38.923Z,20.97
2022-09-12T08:03:56.758Z,20.94
2022-09-12T08:07:22.912Z,20.92
2022-09-12T08:10:42.887Z,20.89
2022-09-12T08:14:09.607Z,20.87
2022-09-12T08:17:36.075Z,20.83
2022-09-12T08:21:04.841Z,20.81
2022-09-12T08:24:35.068Z,20.79
2022-09-12T08:28:03.964Z,20.74
2022-09-12T08:31:21.521Z,20.69
2022-09-12T08:34:39.395Z,20.63
2022-09-12T08:37:56.206Z,20.58
2022-09-12T08:41:33.134Z,20.54
2022-09-12T08:44:50.182Z,20.48
2022-09-12T08:48:29.858Z,20.45
2022-09-12T08:51:56.580Z,20.35
2022-09-12T08:55:13.755Z,20.31
2022-09-12T08:58:11.134Z,20.26
2022-09-12T09:01:21.950Z,20.20
2022-09-12T09:05:07.110Z,20.13
2022-09-12T09:08:32.497Z,20.04
2022-09-12T09:11:54.385Z,19.96
2022-09-12T09:15:16.682Z,19.89
2022-09-12T09:18:47.439Z,19.80
2022-09-12T09:22:15.460Z,19.75
2022-09-12T09:24:58.927Z,19.68
2022-09-12T09:28:05.193Z,19.64
2022-09-12T09:31:15.315Z,19.58
2022-09-12T09:34:32.578Z,19.54
2022-09-12T09:38:02.681Z,19.52
2022-09-12T09:41:34.027Z,19.47
2022-09-12T09:45:02.444Z,19.43
2022-09-12T09:48:16.842Z,19.40
2022-09-12T09:51:06.218Z,19.37
2022-09-12T09:54:07.127Z,19.35
2022-09-12T09:57:29.986Z,19.33
2022-09-12T10:00:10.952Z,19.32
2022-09-12T10:03:36.050Z,19.30
2022-09-12T10:06:52.855Z,19.26
2022-09-12T10:10:25.755Z,19.22
2022-09-12T10:13:20.582Z,19.17
2022-09-12T10:15:39.634Z,19.13
2022-09-12T10:18:41.212Z,19.11
2022-09-12T10:21:58.224Z,19.10
2022-09-12T10:25:24.920Z,19.09
2022-09-12T10:28:25.270Z,19.08
2022-09-12T10:31:53.270Z,19.05
2022-09-12T10:35:29.717Z,19.04
2022-09-12T10:38:39.344Z,19.02
2022-09-12T10:41:40.918Z,19.00
2022-09-12T10:44:40.999Z,18.99
2022-09-12T10:48:23.149Z,18.98
2022-09-12T10:51:23.071Z,18.96
2022-09-12T10:54:51.176Z,18.93
2022-09-12T10:58:15.152Z,18.89
2022-09-12T11:00:59.439Z,18.85
2022-09-12T11:04:35.074Z,18.81
2022-09-12T11:08:05.368Z,18.79
2022-09-12T11:11:24.151Z,18.75
2022-09-12T11:14:49.728Z,18.75
2022-09-12T11:17:56.853Z,18.73
2022-09-12T11:21:14.039Z,18.70
2022-09-12T11:24:19.215Z,18.66
2022-09-12T11:27:31.248Z,18.67
2022-09-12T11:30:58.252Z,18.67
2022-09-12T11:34:19.940Z,18.67
2022-09-12T11:37:42.048Z,18.64
2022-09-12T11:41:18.051Z,18.61
2022-09-12T11:44:52.446Z,18.57
2022-09-12T11:48:09.750Z,18.54
2022-09-12T11:51:20.030Z,18.54
2022-09-12T11:54:56.380Z,18.53
2022-09-12T11:58:11.679Z,18.54
2022-09-12T12:01:38.849Z,18.53
2022-09-12T12:04:53.078Z,18.51
2022-09-12T12:07:49.807Z,18.50
2022-09-12T12:10:10.174Z,18.49
2022-09-12T12:12:59.364Z,18.48
2022-09-12T12:16:16.256Z,18.45
2022-09-12T12:19:48.759Z,18.46
2022-09-12T12:23:12.717Z,18.45
2022-09-12T12:26:33.323Z,18.44
2022-09-12T12:29:57.746Z,18.42
2022-09-12T12:33:24.116Z,18.41
2022-09-12T12:36:02.813Z,18.39
2022-09-12T12:38:54.532Z,18.37
2022-09-12T12:41:43.821Z,18.34
2022-09-12T12:44:48.203Z,18.33
2022-09-12T12:47:41.083Z,18.33
2022-09-12T12:49:58.784Z,18.33
2022-09-12T12:52:04.789Z,18.33
2022-09-12T12:54:33.765Z,18.31
2022-09-12T12:56:42.029Z,18.32
2022-09-12T12:58:48.007Z,18.31
2022-09-12T13:01:45.687Z,18.30
2022-09-12T13:04:08.182Z,18.27
2022-09-12T13:07:14.046Z,18.25
2022-09-12T13:10:19.707Z,18.24
2022-09-12T13:13:06.358Z,18.20
2022-09-12T13:16:11.842Z,18.18
2022-09-12T13:19:18.165Z,18.16
2022-09-12T13:22:11.607Z,18.14
2022-09-12T13:25:21.075Z,18.12
2022-09-12T13:28:00.772Z,18.12
2022-09-12T13:31:08.273Z,18.12
2022-09-12T13:34:23.242Z,18.12
2022-09-12T13:37:15.136Z,18.13
2022-09-12T13:40:21.232Z,18.13
2022-09-12T13:43:21.522Z,18.11
2022-09-12T13:46:30.517Z,18.12
2022-09-12T13:49:28.370Z,18.11
2022-09-12T13:52:35.277Z,18.11
2022-09-12T13:55:43.235Z,18.10
2022-09-12T13:58:41.847Z,18.11
2022-09-12T14:01:48.118Z,18.13
2022-09-12T14:04:42.631Z,18.13
2022-09-12T14:07:45.308Z,18.13
2022-09-12T14:10:25.266Z,18.13
2022-09-12T14:13:31.674Z,18.13
2022-09-12T14:16:27.122Z,18.13
2022-09-12T14:19:16.596Z,18.13
2022-09-12T14:21:59.808Z,18.11
2022-09-12T14:24:47.105Z,18.10
2022-09-12T14:27:53.556Z,18.09
2022-09-12T14:30:48.384Z,18.09
2022-09-12T14:33:55.639Z,18.11
2022-09-12T14:37:05.624Z,18.10
2022-09-12T14:39:47.806Z,18.09
2022-09-12T14:42:44.246Z,18.07
2022-09-12T14:45:39.644Z,18.07
2022-09-12T14:48:49.482Z,18.07
2022-09-12T14:51:54.409Z,18.09
2022-09-12T14:54:52.671Z,18.12
2022-09-12T14:57:57.349Z,18.13
2022-09-12T15:01:03.706Z,18.14
2022-09-12T15:04:17.187Z,18.15
2022-09-12T15:07:04.297Z,18.16
2022-09-12T15:10:10.848Z,18.18
2022-09-12T15:13:18.519Z,18.22
2022-09-12T15:16:15.828Z,18.24
2022-09-12T15:19:22.258Z,18.27
2022-09-12T15:22:19.322Z,18.30
2022-09-12T15:24:58.740Z,18.31
2022-09-12T15:28:05.215Z,18.31
2022-09-12T15:31:13.471Z,18.31
2022-09-12T15:34:19.386Z,18.32
2022-09-12T15:37:25.827Z,18.34
2022-09-12T15:40:31.939Z,18.37
2022-09-12T15:43:40.313Z,18.39
2022-09-12T15:46:29.924Z,18.39
2022-09-12T15:49:36.619Z,18.40
2022-09-12T15:52:44.022Z,18.41
2022-09-12T15:55:41.621Z,18.41
2022-09-12T15:58:31.814Z,18.42
2022-09-12T16:04:25.716Z,18.48
2022-09-12T16:07:56.078Z,18.46
2022-09-12T16:14:59.111Z,18.46
2022-09-12T16:18:16.742Z,18.46
2022-09-12T16:21:33.515Z,18.45
2022-09-12T16:25:00.101Z,18.47
2022-09-12T16:28:06.008Z,18.48
2022-09-12T16:31:13.844Z,18.48
2022-09-12T16:34:39.470Z,18.47
2022-09-12T16:37:54.949Z,18.46
2022-09-12T16:41:02.231Z,18.49
2022-09-12T16:44:31.140Z,18.54
2022-09-12T16:47:28.712Z,18.58
2022-09-12T16:50:46.556Z,18.62
2022-09-12T16:53:53.350Z,18.65
2022-09-12T16:56:51.151Z,18.70
2022-09-12T16:59:21.163Z,18.74
2022-09-12T17:02:28.576Z,18.73
2022-09-12T17:04:59.678Z,18.77
2022-09-12T17:07:56.767Z,18.80
2022-09-12T17:10:49.972Z,18.82
2022-09-12T17:14:09.552Z,18.85
2022-09-12T17:17:21.625Z,18.89
2022-09-12T17:20:48.813Z,18.97
2022-09-12T17:23:55.769Z,19.09
2022-09-12T17:27:23.546Z,19.19
2022-09-12T17:30:30.946Z,19.29
2022-09-12T17:33:48.531Z,19.43
2022-09-12T17:37:15.426Z,19.65
2022-09-12T17:40:58.975Z,19.92
2022-09-12T17:44:06.157Z,20.25
2022-09-12T17:47:05.290Z,20.54
2022-09-12T17:50:39.410Z,20.78
2022-09-12T17:53:45.594Z,21.00
2022-09-12T17:57:06.136Z,21.08
2022-09-12T18:00:36.294Z,21.24
2022-09-12T18:03:53.282Z,21.46
2022-09-12T18:07:11.947Z,21.73
2022-09-12T18:10:29.394Z,22.06
2022-09-12T18:13:56.374Z,22.31
2022-09-12T18:17:06.384Z,22.54
2022-09-12T18:20:13.493Z,22.63
2022-09-12T18:23:01.981Z,22.69
2022-09-12T18:26:20.282Z,22.75
2022-09-12T18:30:04.271Z,22.82
2022-09-12T18:33:36.257Z,22.75
2022-09-12T18:37:12.526Z,22.62
2022-09-12T18:40:19.332Z,22.55
2022-09-12T18:43:36.616Z,22.53
2022-09-12T18:47:06.298Z,22.53
2022-09-12T18:50:33.049Z,22.40
2022-09-12T18:53:58.603Z,22.22
2022-09-12T18:57:15.412Z,22.21
2022-09-12T19:00:26.175Z,22.28
2022-09-12T19:03:45.883Z,22.34
2022-09-12T19:06:52.362Z,22.33
2022-09-12T19:10:09.249Z,22.26
2022-09-12T19:13:16.925Z,22.23
2022-09-12T19:16:06.351Z,22.36
2022-09-12T19:19:06.239Z,22.47
2022-09-12T19:22:25.706Z,22.68
2022-09-12T19:25:52.464Z,22.79
2022-09-12T19:28:52.061Z,22.91
2022-09-12T19:31:48.835Z,23.02
2022-09-12T19:35:19.606Z,22.82
2022-09-12T19:38:48.447Z,22.81
2022-09-12T19:42:08.095Z,23.05
2022-09-12T19:45:26.589Z,23.29
2022-09-12T19:48:48.934Z,23.54
2022-09-12T19:52:17.541Z,23.80
2022-09-12T19:55:24.545Z,24.12
2022-09-12T19:58:56.639Z,24.40
2022-09-12T20:02:17.444Z,24.65
2022-09-12T20:05:44.332Z,25.01
2022-09-12T20:09:11.095Z,25.33
2022-09-12T20:12:22.146Z,25.68
2022-09-12T20:15:38.792Z,25.78
2022-09-12T20:18:56.569Z,25.76
2022-09-12T20:21:48.134Z,25.64
2022-09-12T20:25:14.225Z,25.60
2022-09-12T20:28:22.104Z,25.75
2022-09-12T20:31:32.260Z,25.75
2022-09-12T20:34:57.726Z,25.73
2022-09-12T20:38:14.638Z,25.83
2022-09-12T20:41:29.778Z,25.70
2022-09-12T20:44:31.314Z,25.41
2022-09-12T20:47:27.305Z,25.18
2022-09-12T20:50:31.967Z,25.04
2022-09-12T20:53:31.720Z,24.96
2022-09-12T20:56:35.302Z,24.98
2022-09-12T20:59:43.572Z,24.96
2022-09-12T21:02:44.403Z,24.99
2022-09-12T21:05:25.940Z,25.05
2022-09-12T21:08:36.263Z,25.08
2022-09-12T21:11:29.802Z,25.02
2022-09-12T21:14:39.760Z,24.96
2022-09-12T21:17:40.312Z,24.94
2022-09-12T21:20:37.865Z,24.93
2022-09-12T21:23:53.601Z,24.98
2022-09-12T21:26:36.759Z,25.03
2022-09-12T21:29:29.924Z,25.04
2022-09-12T21:32:03.194Z,25.06
2022-09-12T21:34:50.769Z,25.08
2022-09-12T21:38:07.396Z,25.18
2022-09-12T21:41:24.579Z,25.39
2022-09-12T21:44:42.518Z,25.49
2022-09-12T21:47:48.307Z,25.48
2022-09-12T21:51:04.235Z,25.45
2022-09-12T21:54:13.555Z,25.37
2022-09-12T21:56:55.146Z,25.31
2022-09-12T22:00:22.052Z,25.26
2022-09-12T22:03:39.906Z,25.25
2022-09-12T22:07:07.352Z,25.26
2022-09-12T22:10:24.980Z,25.27
2022-09-12T22:13:23.062Z,25.31
2022-09-12T22:16:54.285Z,25.32
2022-09-12T22:20:12.352Z,25.38
2022-09-12T22:23:39.198Z,25.38
2022-09-12T22:26:51.277Z,25.35
2022-09-12T22:30:18.492Z,25.34
2022-09-12T22:33:39.067Z,25.31
2022-09-12T22:36:38.795Z,25.30
2022-09-12T22:39:55.998Z,25.26
2022-09-12T22:42:53.815Z,25.23
2022-09-12T22:46:00.801Z,25.31
2022-09-12T22:49:08.993Z,25.41
2022-09-12T22:52:36.667Z,25.53
2022-09-12T22:55:22.660Z,25.66
2022-09-12T22:58:30.209Z,25.74
2022-09-12T23:01:29.365Z,25.81
2022-09-12T23:04:38.799Z,25.83
2022-09-12T23:07:19.101Z,25.82
2022-09-12T23:10:20.701Z,25.78
2022-09-12T23:12:57.412Z,25.75
2022-09-12T23:16:14.171Z,25.68
2022-09-12T23:19:35.462Z,25.61
2022-09-12T23:23:03.150Z,25.54
2022-09-12T23:25:59.799Z,25.53
2022-09-12T23:29:30.681Z,25.58
2022-09-12T23:32:00.259Z,25.64
2022-09-12T23:35:28.370Z,25.64
2022-09-12T23:38:45.334Z,25.64
2022-09-12T23:41:37.194Z,25.62
2022-09-12T23:45:05.218Z,25.61
2022-09-12T23:48:32.963Z,25.62
2022-09-12T23:51:59.508Z,25.58
2022-09-12T23:55:30.320Z,25.55
2022-09-12T23:58:57.525Z,25.53
